CA-0548 weather

CLOSED North Cariboo Air Park
Prince George, British Columbia, Canada

Public forecast

Using degrees Celsius for public forecast. Weather courtesy of forecast.io.

METAR (pilot weather report)

Closest report is Prince George Airport, 14.1 nm (26.1 km) ESE. Retrieved 2019/08/17 16:00 UTC (1 minute ago):

CYXS 171600Z AUTO 17011G16KT 9SM FEW075 RMK T MISG TD MISG DENSITY ALT MISG

TAF (pilot weather forecast)

Closest forecast is Prince George Airport, 14.1 nm (26.1 km) ESE. Retrieved 2019/08/17 13:42 UTC (2 hours ago):

TAF CYXS 171239Z 1713/1801 17008KT P6SM OVC100 FM171500 17008KT P6SM SCT080 OVC120 TEMPO 1715/1721 P6SM -SHRA SCT060 OVC080 FM172100 20010KT P6SM SCT060 OVC080 TEMPO 1721/1801 P6SM -RA SCT020 OVC060 RMK FCST BASED ON AUTO OBS. NXT FCST BY 171900Z